NCAR-RAP Real-Time Weather Data

Output produced by METARs form (27 April 2017  03:07 UTC)
found at http://weather.rap.ucar.edu/surface/
 
KDCA 270252Z 15003KT 10SM CLR 17/15 A2984 RMK AO2 SLP105 T01670150 51015
KDCA 270152Z 14003KT 10SM FEW060 BKN250 17/15 A2983 RMK AO2 SLP102 T01720150
KDCA 270052Z 12004KT 10SM FEW050 BKN250 18/16 A2981 RMK AO2 SLP095 T01780156
KDCA 262352Z 10006KT 10SM FEW036 BKN250 19/15 A2980 RMK AO2 SLP090 T01940150 10222 20194 53009
KDCA 262252Z 06006KT 10SM SCT036 BKN250 21/16 A2978 RMK AO2 SLP085 T02060156
KDCA 262152Z 07006KT 10SM BKN036 BKN250 22/16 A2977 RMK AO2 SLP081 T02170156
KDCA 262052Z 04005KT 10SM FEW028 BKN034 BKN041 21/15 A2977 RMK AO2 SLP081 T02110150 58002
KDCA 261952Z 31005KT 10SM SCT028 OVC036 21/14 A2978 RMK AO2 SLP084 BINOVC T02060144
KDCA 261852Z 28005KT 10SM OVC027 20/14 A2978 RMK AO2 SLP084 T02000144
KDCA 261752Z 33006KT 10SM OVC027 20/14 A2978 RMK AO2 SLP083 T02000144 10200 20150 58007
KDCA 261652Z 36007KT 10SM OVC023 19/14 A2979 RMK AO2 SLP086 T01890139
KDCA 261552Z 34005KT 10SM OVC019 19/14 A2979 RMK AO2 SLP088 OCNL BINOVC T01890144
KDCA 261452Z 34009KT 10SM BKN015 BKN024 OVC048 17/14 A2980 RMK AO2 SLP090 T01720139 51016
KDCA 261444Z 31008KT 10SM BKN015 OVC048 17/14 A2980 RMK AO2 T01670139
KDCA 261352Z 32008KT 10SM OVC013 16/14 A2979 RMK AO2 SLP086 T01560139
KDCA 261252Z 33008KT 10SM OVC011 16/14 A2977 RMK AO2 SLP080 T01560139
KDCA 261242Z 33008KT 10SM OVC010 15/14 A2977 RMK AO2 T01500139
KDCA 261202Z 32009KT 7SM OVC009 15/14 A2976 RMK AO2 T01500139
KDCA 261152Z 31009KT 7SM OVC011 15/14 A2975 RMK AO2 SLP075 60001 70007 T01500139 10150 20144 53015
KDCA 261052Z 34008KT 7SM OVC011 15/14 A2973 RMK AO2 SLP067 T01500139
KDCA 260952Z 33007KT 10SM BKN010 OVC014 14/14 A2972 RMK AO2 RAE04 SLP061 P0000 T01440139
KDCA 260936Z 34008KT 10SM SCT008 OVC013 15/14 A2971 RMK AO2 RAE04 P0000 T01500144
KDCA 260852Z 33008KT 6SM -RA BR OVC010 15/14 A2971 RMK AO2 RAB34 SLP060 P0001 60001 T01500144 53003
KDCA 260843Z 33007KT 6SM -RA BR OVC010 15/14 A2971 RMK AO2 RAB34 P0001 T01500144
KDCA 260834Z 35009KT 10SM -RA OVC009 15/14 A2971 RMK AO2 RAB34 P0001 T01500144
KDCA 260752Z 35008KT 5SM BR OVC006 15/14 A2970 RMK AO2 RAB06E18 SLP057 P0000 T01500144
KDCA 260719Z 35011KT 10SM OVC007 15/14 A2970 RMK AO2 RAB06E18 P0000 T01500144
KDCA 260652Z 35009KT 10SM BKN009 OVC012 15/14 A2970 RMK AO2 SLP056 T01500144
KDCA 260650Z 35009KT 10SM OVC009 15/14 A2970 RMK AO2
KDCA 260621Z 35009KT 10SM OVC013 15/14 A2971 RMK AO2 T01500144
KDCA 260609Z 35006KT 10SM BKN015 BKN041 OVC100 15/14 A2971 RMK AO2 T01500144
KDCA 260559Z 35007KT 10SM FEW009 BKN043 OVC100 15/14 A2971 RMK AO2 T01500144
KDCA 260552Z 35007KT 10SM FEW012 SCT043 OVC100 15/14 A2971 RMK AO2 DZE29 SLP061 P0000 60001 T01500144 10156 20144 58015
KDCA 260541Z 34008KT 10SM SCT012 BKN045 OVC100 15/14 A2972 RMK AO2 DZE29 P0000 T01500144
KDCA 260533Z 34008KT 10SM SCT010 BKN016 OVC044 15/14 A2972 RMK AO2 DZE29 P0000 T01500144
KDCA 260511Z 34007KT 7SM -DZ BKN010 OVC014 15/15 A2973 RMK AO2 P0000 T01500150
KDCA 260452Z 34007KT 5SM -DZ BR OVC008 15/14 A2973 RMK AO2 SLP067 P0001 T01500144 401610117
KDCA 260352Z 01008KT 3SM -DZ BR OVC006 15/14 A2974 RMK AO2 SLP070 P0000 T01500144
KDCA 260259Z 36011KT 3SM -DZ BR OVC006 14/14 A2975 RMK AO2 P0000 T01440144
KDCA 260252Z 01011KT 5SM -DZ BR OVC006 15/14 A2976 RMK AO2 DZB01 SLP076 P0000 60000 T01500144 53007
KDCA 260152Z 02011KT 8SM OVC006 15/14 A2975 RMK AO2 SLP075 T01500144
KDCA 260052Z 03010KT 10SM OVC007 15/14 A2973 RMK AO2 SLP067 T01500139
KDCA 260003Z 02011KT 10SM OVC007 15/14 A2973 RMK AO2 T01500144
KDCA 252352Z 03010KT 10SM OVC008 15/14 A2973 RMK AO2 SLP069 60001 T01500144 10161 20150 56002
KDCA 252315Z 04013KT 10SM OVC009 16/14 A2973 RMK AO2 T01560144
KDCA 252252Z 04012KT 10SM OVC011 16/14 A2973 RMK AO2 SLP069 T01610144
KDCA 252152Z 04014KT 10SM OVC012 16/14 A2974 RMK AO2 SLP069 T01610144
KDCA 252120Z 03012G19KT 10SM OVC010 16/15 A2973 RMK AO2 T01610150
KDCA 252052Z 05010KT 9SM OVC008 16/15 A2974 RMK AO2 DZE32 SLP071 P0000 60001 T01560150 55013
KDCA 252012Z 04014G22KT 4SM -DZ BR OVC008 16/15 A2973 RMK AO2 P0000 T01560150
KDCA 251952Z 04015KT 5SM -DZ BR OVC010 16/15 A2973 RMK AO2 RAE03DZB03 SLP068 P0000 T01560150
KDCA 251852Z 05018KT 3SM -RA BR BKN010 OVC016 16/14 A2976 RMK AO2 SLP077 P0001 T01560144
KDCA 251826Z 04014KT 3SM -RA BR FEW008 BKN012 OVC018 16/14 A2977 RMK AO2 P0000 T01560144
KDCA 251752Z 05017G23KT 2 1/2SM -RA BR FEW008 BKN012 OVC018 15/14 A2978 RMK AO2 PK WND 05029/1704 RAB1655E46B50 SLP084 P0002 60004 T01500144 10156 20139 55019
KDCA 251747Z 05014G23KT 2 1/2SM BR SCT010 OVC016 16/14 A2978 RMK AO2 PK WND 05029/1704 RAB1655E46 P0002
KDCA 251725Z 05017G24KT 2SM -RA BR BKN012 OVC018 16/14 A2978 RMK AO2 PK WND 05029/1704 RAB1655 P0002 T01560144
KDCA 251716Z 05017KT 4SM -RA BR BKN011 OVC015 16/14 A2978 RMK AO2 PK WND 05029/1704 RAB1655 P0002 T01560144
KDCA 251702Z 05021G27KT 2SM -RA BR OVC012 16/14 A2978 RMK AO2 PK WND 05027/1702 RAB1655 P0000 T01560144
KDCA 251658Z 05017G26KT 3SM -RA BR OVC012 16/14 A2978 RMK AO2 RAB55 P0000 T01560144
KDCA 251652Z 04019G28KT 8SM OVC012 16/14 A2977 RMK AO2 PK WND 04029/1555 RAE34 SLP081 P0000 T01560139
KDCA 251552Z 04017G25KT 3SM -RA BR FEW009 BKN013 OVC021 15/14 A2981 RMK AO2 PK WND 04028/1456 SLP093 P0001 T01500139
KDCA 251540Z 04021G26KT 3SM -RA BR SCT009 BKN012 OVC020 14/14 A2982 RMK AO2 PK WND 04028/1456 P0001 T01440139
KDCA 251533Z 05017G26KT 2SM R01/6000FT -RA BR OVC011 15/14 A2982 RMK AO2 PK WND 04028/1456 P0000 T01500139
KDCA 251521Z COR 04019G25KT 1 3/4SM R01/6000FT -RA BR BKN009 OVC013 15/14 A2982 RMK AO2 PK WND 04028/1456 P0000 T01500139
KDCA 251507Z 04019G26KT 2 1/2SM -RA BR OVC011 15/13 A2983 RMK AO2 PK WND 04028/1456 P0000 T01500133
KDCA 251452Z 05018G23KT 5SM -RA BR BKN011 OVC014 15/14 A2984 RMK AO2 PK WND 04027/1404 RAB01 SLP103 P0001 60001 T01500139 58015
KDCA 251409Z 04018G27KT 4SM -RA BR OVC010 14/13 A2985 RMK AO2 PK WND 04027/1404 RAB01 P0000 T01440133
KDCA 251404Z 04020G27KT 7SM -RA OVC010 14/13 A2985 RMK AO2 PK WND 04027/1404 RAB01 P0000 T01440133
KDCA 251352Z 04016KT 10SM OVC010 14/13 A2985 RMK AO2 SLP110 T01440133
KDCA 251323Z 05017G24KT 7SM OVC008 14/13 A2987 RMK AO2 T01440133
KDCA 251252Z 04018KT 7SM OVC007 14/13 A2987 RMK AO2 DZE13 SLP115 P0000 T01440133
KDCA 251152Z 04014KT 3SM -DZ BR OVC006 13/13 A2988 RMK AO2 SLP119 P0000 60000 70025 T01330133 10139 20117 56001 $
KDCA 251127Z 05014KT 3SM -DZ BR OVC006 13/13 A2989 RMK AO2 P0000 T01330128 $
KDCA 251052Z 04011KT 2 1/2SM -DZ BR OVC006 13/13 A2988 RMK AO2 DZB0957 SLP119 P0000 T01330128
KDCA 250952Z 04015G21KT 10SM OVC006 13/13 A2987 RMK AO2 SLP114 T01330128
KDCA 250852Z 04014KT 10SM OVC007 13/12 A2988 RMK AO2 SLP119 T01330122 56020
KDCA 250752Z 04013KT 10SM OVC007 13/12 A2990 RMK AO2 SLP123 T01280117
KDCA 250702Z 04012KT 10SM OVC009 12/11 A2992 RMK AO2 T01220111
KDCA 250652Z 04010KT 10SM OVC010 12/11 A2992 RMK AO2 SLP133 T01220111
KDCA 250552Z 04011KT 10SM BKN010 OVC065 12/11 A2994 RMK AO2 RAB0456E39 SLP139 P0002 60006 T01170106 10133 20117 58016
KDCA 250545Z 04011G18KT 10SM SCT011 BKN015 OVC065 12/11 A2994 RMK AO2 RAB0456E39 P0002 T01170106
KDCA 250526Z 03013KT 10SM -RA SCT013 SCT042 OVC060 12/11 A2994 RMK AO2 RAB0456 P0002 T01170106
KDCA 250505Z 05011KT 6SM -RA BR BKN015 OVC043 12/11 A2997 RMK AO2 RAB0456 P0000 T01170106
KDCA 250452Z 04009KT 10SM OVC014 12/10 A2998 RMK AO2 RAE34 SLP150 P0001 T01170100 401390117
KDCA 250352Z 05011KT 10SM -RA OVC014 12/10 A2999 RMK AO2 RAB39 SLP157 P0000 T01220100
KDCA 250348Z 05010KT 10SM -RA OVC014 12/10 A2999 RMK AO2 RAB39 P0000
KDCA 250252Z 04012KT 10SM FEW014 OVC019 12/10 A3000 RMK AO2 SLP157 60003 T01220100 58007
KDCA 250152Z 05015KT 10SM BKN021 OVC028 13/10 A3001 RMK AO2 RAE34 SLP164 P0000 T01280100
KDCA 250052Z 04011KT 5SM -RA BR OVC025 12/10 A3002 RMK AO2 RAE22B46 SLP165 P0003 T01220100
KDCA 250010Z 05011KT 9SM -RA OVC029 13/09 A3002 RMK AO2 P0000 T01280094
KDCA 242352Z 04008KT 10SM -RA OVC032 13/09 A3002 RMK AO2 RAB04 SLP164 P0000 60013 T01330094 10139 20122 53001
KDCA 242252Z 06013KT 10SM OVC032 14/09 A3000 RMK AO2 RAB01E18 SLP160 P0001 T01390094
KDCA 242152Z 03012KT 10SM OVC033 13/11 A3001 RMK AO2 RAE50 SLP163 P0000 T01330111
KDCA 242052Z 03011KT 10SM -RA OVC033 13/11 A3001 RMK AO2 SLP163 P0003 60012 T01280106 58010
KDCA 241952Z 03009KT 10SM -RA OVC034 12/11 A3002 RMK AO2 SLP167 P0003 T01220106
KDCA 241852Z 05011KT 4SM R01/6000FT RA OVC038 12/09 A3004 RMK AO2 SLP173 P0006 T01220094
KDCA 241837Z 04008KT 2 1/2SM -RA OVC038 12/09 A3005 RMK AO2 P0005 T01220094
KDCA 241752Z 05017KT 4SM -RA BKN040 OVC050 13/08 A3004 RMK AO2 SLP173 P0005 60006 T01280083 10139 20117 56015
KDCA 241737Z 04011KT 4SM RA BKN042 OVC050 13/08 A3004 RMK AO2 P0004 T01330078
KDCA 241652Z 04013KT 10SM -RA BKN042 OVC065 14/07 A3006 RMK AO2 RAB10 SLP177 P0000 T01390072
KDCA 241552Z 04012KT 10SM FEW015 OVC049 13/08 A3007 RMK AO2 SLP182 T01330083